Time;durP1;ratioP1;P1;durP2;ratioP2;P2;SDS_P1;SDS_P2;PMS_P1;PMS_P2;Temp;Humidity;BMP_temperature;BMP_pressure;BME280_temperature;BME280_humidity;BME280_pressure;Samples;Min_cycle;Max_cycle;Signal;HPM_P1;HPM_P2
2021/03/10 00:01:15;;;;;;;2.03;1.60;;;19.90;33.40;;;;;;6193181;23;20027;-79
2021/03/10 00:03:41;;;;;;;1.83;1.60;;;19.90;33.50;;;;;;6218691;23;20506;-79
2021/03/10 00:06:06;;;;;;;2.00;1.70;;;19.90;33.50;;;;;;6245454;23;20019;-79
2021/03/10 00:08:32;;;;;;;4.00;1.90;;;19.90;33.40;;;;;;6218575;23;20016;-79
2021/03/10 00:10:57;;;;;;;2.28;1.92;;;19.90;33.40;;;;;;6194400;23;20408;-79
2021/03/10 00:13:24;;;;;;;2.40;1.85;;;19.90;33.50;;;;;;6245531;23;20012;-79
2021/03/10 00:15:49;;;;;;;2.08;1.83;;;19.90;33.50;;;;;;6218485;23;20818;-79
2021/03/10 00:18:15;;;;;;;2.33;1.70;;;19.90;33.40;;;;;;6219001;23;20062;-79
2021/03/10 00:20:41;;;;;;;1.83;1.70;;;19.90;33.40;;;;;;6193879;23;20062;-79
2021/03/10 00:23:06;;;;;;;2.03;1.83;;;19.90;33.40;;;;;;6218545;23;20087;-80
2021/03/10 00:25:32;;;;;;;2.50;1.90;;;19.90;33.40;;;;;;6193331;23;20015;-79
2021/03/10 00:27:58;;;;;;;3.55;1.80;;;19.90;33.40;;;;;;6218289;23;20020;-79
2021/03/10 00:30:23;;;;;;;1.63;1.52;;;19.90;33.40;;;;;;6245343;22;20020;-79
2021/03/10 00:32:49;;;;;;;2.42;2.15;;;19.90;33.40;;;;;;6218368;23;20333;-79
2021/03/10 00:35:15;;;;;;;2.17;1.70;;;19.90;33.30;;;;;;6218459;23;20016;-79
2021/03/10 00:37:40;;;;;;;2.63;1.83;;;19.90;33.40;;;;;;6219069;23;20035;-79
2021/03/10 00:40:06;;;;;;;2.50;2.17;;;19.90;33.40;;;;;;6245083;23;20027;-79
2021/03/10 00:42:32;;;;;;;2.28;1.73;;;19.90;33.40;;;;;;6193412;23;20023;-79
2021/03/10 00:44:57;;;;;;;2.17;1.88;;;19.90;33.50;;;;;;6193254;23;20016;-79
2021/03/10 00:47:23;;;;;;;2.97;2.00;;;19.90;33.40;;;;;;6218337;23;20042;-80
2021/03/10 00:49:49;;;;;;;2.58;1.90;;;19.90;33.40;;;;;;6218300;23;20020;-80
2021/03/10 00:52:14;;;;;;;2.78;2.17;;;19.90;33.40;;;;;;6218341;23;20059;-79
2021/03/10 00:54:41;;;;;;;2.38;1.77;;;19.90;33.40;;;;;;6218770;23;20012;-79
2021/03/10 00:57:07;;;;;;;2.55;2.20;;;19.90;33.40;;;;;;6193895;23;20098;-79
2021/03/10 00:59:33;;;;;;;3.33;2.03;;;19.90;33.50;;;;;;6218131;23;20015;-79
2021/03/10 01:01:58;;;;;;;2.28;1.58;;;19.90;33.40;;;;;;6193200;23;20052;-79
2021/03/10 01:04:24;;;;;;;2.13;1.90;;;19.90;33.40;;;;;;6193091;23;20012;-80
2021/03/10 01:06:50;;;;;;;2.38;2.05;;;19.90;33.50;;;;;;6193203;23;20016;-80
2021/03/10 01:09:17;;;;;;;2.33;1.90;;;19.90;33.40;;;;;;6218471;23;20503;-80
2021/03/10 01:11:43;;;;;;;1.83;1.63;;;19.90;33.40;;;;;;6245066;23;20046;-79
2021/03/10 01:14:09;;;;;;;2.17;1.95;;;19.90;33.40;;;;;;6192453;23;20012;-79
2021/03/10 01:16:35;;;;;;;3.03;1.90;;;19.90;33.40;;;;;;6193534;23;20098;-79
2021/03/10 01:19:01;;;;;;;3.22;2.35;;;19.90;33.50;;;;;;6192802;23;20035;-79
2021/03/10 01:21:27;;;;;;;1.80;1.70;;;19.90;33.40;;;;;;6244907;22;20020;-79
2021/03/10 01:23:53;;;;;;;2.53;2.10;;;19.90;33.30;;;;;;6244901;23;20038;-79
2021/03/10 01:26:19;;;;;;;2.88;1.90;;;19.90;33.40;;;;;;6218532;23;20086;-79
2021/03/10 01:28:44;;;;;;;3.63;2.15;;;19.90;33.40;;;;;;6192797;23;20315;-79
2021/03/10 01:31:10;;;;;;;2.25;1.90;;;19.90;33.40;;;;;;6192997;23;20047;-80
2021/03/10 01:33:36;;;;;;;2.80;2.10;;;19.90;33.40;;;;;;6218182;23;20020;-80
2021/03/10 01:36:02;;;;;;;2.17;1.90;;;19.90;33.50;;;;;;6192874;23;20031;-80
2021/03/10 01:38:28;;;;;;;2.70;2.03;;;19.90;33.40;;;;;;6244921;23;20023;-80
2021/03/10 01:40:53;;;;;;;3.47;2.38;;;19.90;33.40;;;;;;6192963;23;20016;-79
2021/03/10 01:43:19;;;;;;;2.13;1.90;;;19.90;33.50;;;;;;6244846;23;20100;-80
2021/03/10 01:45:44;;;;;;;2.30;2.10;;;19.90;33.40;;;;;;6217763;23;20004;-80
2021/03/10 01:48:12;;;;;;;2.10;1.90;;;19.90;33.40;;;;;;6192771;23;20016;-79
2021/03/10 01:50:38;;;;;;;2.38;2.00;;;19.90;33.40;;;;;;6192683;23;20442;-79
2021/03/10 01:53:04;;;;;;;2.50;2.13;;;19.80;33.40;;;;;;6192781;23;20150;-80
2021/03/10 01:55:31;;;;;;;2.28;2.05;;;19.90;33.40;;;;;;6192730;23;20038;-79
2021/03/10 01:57:57;;;;;;;2.25;2.05;;;19.90;33.40;;;;;;6192917;23;20018;-79
2021/03/10 02:00:25;;;;;;;2.53;2.30;;;19.90;33.40;;;;;;6192401;23;20047;-80
2021/03/10 02:02:51;;;;;;;3.70;2.00;;;19.90;33.40;;;;;;6217525;23;20030;-80
2021/03/10 02:05:20;;;;;;;1.90;1.70;;;19.80;33.40;;;;;;6217619;23;20392;-79
2021/03/10 02:08:01;;;;;;;1.90;1.80;;;19.80;33.40;;;;;;6241806;23;20499;-80
2021/03/10 02:10:48;;;;;;;2.13;1.80;;;19.90;33.40;;;;;;6217711;23;20011;-79
2021/03/10 02:13:24;;;;;;;2.33;2.13;;;19.90;33.30;;;;;;6217715;23;20012;-79
2021/03/10 02:15:59;;;;;;;2.00;1.80;;;19.90;33.40;;;;;;6217485;22;20044;-79
2021/03/10 02:18:41;;;;;;;2.38;1.95;;;19.90;33.30;;;;;;6217950;23;20587;-80
2021/03/10 02:21:18;;;;;;;2.00;1.80;;;19.90;33.40;;;;;;6244208;23;20055;-79
2021/03/10 02:23:56;;;;;;;2.35;2.03;;;19.90;33.40;;;;;;6245040;22;20019;-79
2021/03/10 02:26:38;;;;;;;2.67;1.98;;;19.90;33.30;;;;;;6218595;23;20319;-80
2021/03/10 02:29:10;;;;;;;2.05;1.83;;;19.80;33.40;;;;;;6219258;23;20385;-80
2021/03/10 02:31:39;;;;;;;2.38;2.17;;;19.80;33.30;;;;;;6194657;23;20016;-80
2021/03/10 02:34:06;;;;;;;2.95;2.40;;;19.80;33.40;;;;;;6219453;23;20008;-79
2021/03/10 02:36:33;;;;;;;2.35;2.10;;;19.90;33.30;;;;;;6215942;23;20389;-79
2021/03/10 02:39:01;;;;;;;2.13;1.85;;;19.80;33.30;;;;;;6218554;23;20465;-80
2021/03/10 02:41:29;;;;;;;2.63;1.95;;;19.80;33.40;;;;;;6194578;23;20437;-79
2021/03/10 02:43:55;;;;;;;1.70;1.60;;;19.80;33.40;;;;;;6193646;23;20041;-79
2021/03/10 02:46:21;;;;;;;2.80;2.08;;;19.90;33.40;;;;;;6245786;23;20012;-79
2021/03/10 02:48:47;;;;;;;1.80;1.70;;;19.80;33.40;;;;;;6218860;23;20038;-79
2021/03/10 02:51:18;;;;;;;2.33;2.13;;;19.80;33.40;;;;;;6218749;23;20510;-79
2021/03/10 02:53:46;;;;;;;2.03;1.83;;;19.90;33.40;;;;;;6193775;23;20320;-79
2021/03/10 02:56:12;;;;;;;2.13;1.92;;;19.90;33.30;;;;;;6218806;23;20044;-79
2021/03/10 02:58:39;;;;;;;2.63;2.42;;;19.80;33.30;;;;;;6193772;23;20016;-79
2021/03/10 03:01:06;;;;;;;2.30;2.10;;;19.90;33.40;;;;;;6193653;23;20059;-80
2021/03/10 03:03:31;;;;;;;2.03;1.88;;;19.90;33.30;;;;;;6245688;23;20009;-79
2021/03/10 03:05:57;;;;;;;2.88;2.47;;;19.80;33.30;;;;;;6193707;23;20023;-79
2021/03/10 03:08:23;;;;;;;4.65;2.58;;;19.80;33.30;;;;;;6245826;23;20008;-79
2021/03/10 03:10:49;;;;;;;2.95;2.40;;;19.80;33.20;;;;;;6245605;23;20050;-79
2021/03/10 03:13:17;;;;;;;2.35;2.15;;;19.80;33.30;;;;;;6218891;23;20355;-80
2021/03/10 03:15:56;;;;;;;2.20;2.00;;;19.80;33.30;;;;;;6218490;23;20031;-79
2021/03/10 03:18:22;;;;;;;3.13;2.42;;;19.80;33.40;;;;;;6194011;23;20070;-79
2021/03/10 03:20:49;;;;;;;2.50;1.98;;;19.80;33.40;;;;;;6193596;23;20099;-79
2021/03/10 03:23:17;;;;;;;2.42;2.17;;;19.80;33.90;;;;;;6219277;23;20296;-79
2021/03/10 03:25:43;;;;;;;2.83;2.00;;;19.80;33.40;;;;;;6193958;23;20012;-79
2021/03/10 03:28:14;;;;;;;1.95;1.85;;;19.80;33.30;;;;;;6245690;23;20090;-79
2021/03/10 03:30:40;;;;;;;3.17;2.10;;;19.80;33.30;;;;;;6218731;23;20520;-79
2021/03/10 03:33:11;;;;;;;2.72;2.03;;;19.80;33.40;;;;;;6218565;23;20019;-79
2021/03/10 03:35:38;;;;;;;2.33;2.10;;;19.90;33.70;;;;;;6218888;23;20012;-80
2021/03/10 03:38:05;;;;;;;2.15;1.95;;;19.90;33.30;;;;;;6218715;23;20023;-79
2021/03/10 03:40:33;;;;;;;2.30;2.10;;;19.90;33.40;;;;;;6245523;22;20023;-80
2021/03/10 03:43:01;;;;;;;3.17;2.47;;;19.90;33.40;;;;;;6245607;23;20402;-80
2021/03/10 03:45:27;;;;;;;2.15;1.90;;;19.90;33.30;;;;;;6193471;23;20404;-79
2021/03/10 03:47:54;;;;;;;2.28;2.08;;;19.90;33.30;;;;;;6190374;23;20051;-79
2021/03/10 03:50:22;;;;;;;3.83;2.50;;;19.90;33.30;;;;;;6245391;22;20086;-79
2021/03/10 03:52:48;;;;;;;2.53;2.10;;;19.90;33.30;;;;;;6218930;23;20043;-79
2021/03/10 03:55:15;;;;;;;2.50;2.30;;;19.90;33.30;;;;;;6245448;23;20019;-79
2021/03/10 03:57:40;;;;;;;2.20;2.00;;;19.90;33.30;;;;;;6218817;23;20094;-79
2021/03/10 04:00:09;;;;;;;2.67;2.13;;;19.90;33.40;;;;;;6218868;23;20124;-79
2021/03/10 04:02:39;;;;;;;2.58;2.20;;;19.90;33.30;;;;;;6245916;23;20434;-79
2021/03/10 04:05:05;;;;;;;2.50;2.10;;;19.90;33.30;;;;;;6219158;23;20012;-79
2021/03/10 04:07:31;;;;;;;2.35;2.15;;;19.90;33.30;;;;;;6193366;23;20104;-80
2021/03/10 04:09:56;;;;;;;2.33;1.88;;;19.90;33.30;;;;;;6193484;23;20047;-79
2021/03/10 04:12:22;;;;;;;2.63;2.15;;;19.90;33.30;;;;;;6193429;23;20022;-80
2021/03/10 04:14:47;;;;;;;2.20;2.00;;;19.90;33.40;;;;;;6218507;23;20016;-79
2021/03/10 04:17:14;;;;;;;2.28;2.00;;;19.90;33.40;;;;;;6244933;22;20069;-80
2021/03/10 04:19:41;;;;;;;2.35;2.15;;;19.90;33.30;;;;;;6193704;23;20441;-80
2021/03/10 04:22:16;;;;;;;2.10;1.90;;;19.90;33.50;;;;;;6218446;23;20338;-79
2021/03/10 04:24:41;;;;;;;2.80;2.38;;;19.90;33.30;;;;;;6218505;23;20008;-79
2021/03/10 04:27:07;;;;;;;2.08;1.88;;;19.90;33.40;;;;;;6246109;23;20013;-79
2021/03/10 04:29:33;;;;;;;2.25;2.05;;;19.90;33.30;;;;;;6193635;23;20059;-79
2021/03/10 04:31:58;;;;;;;2.15;1.83;;;19.90;33.30;;;;;;6218491;23;20024;-79
2021/03/10 04:34:24;;;;;;;2.78;2.38;;;19.90;33.30;;;;;;6245281;23;20016;-80
2021/03/10 04:36:49;;;;;;;2.90;1.88;;;19.90;33.20;;;;;;6194277;23;20036;-79
2021/03/10 04:39:15;;;;;;;2.20;2.00;;;19.90;33.20;;;;;;6245503;22;20062;-79
2021/03/10 04:41:41;;;;;;;2.40;2.20;;;19.90;33.20;;;;;;6219033;23;20012;-79
2021/03/10 04:44:07;;;;;;;2.53;2.33;;;19.90;33.20;;;;;;6245482;23;20453;-79
2021/03/10 04:46:32;;;;;;;2.33;2.13;;;19.90;33.00;;;;;;6218272;23;20019;-79
2021/03/10 04:48:58;;;;;;;2.38;1.80;;;19.90;33.10;;;;;;6218721;23;20016;-80
2021/03/10 04:51:23;;;;;;;2.42;2.15;;;19.90;33.10;;;;;;6218676;23;20038;-79
2021/03/10 04:53:49;;;;;;;2.35;2.10;;;19.90;33.20;;;;;;6245343;23;20012;-80
2021/03/10 04:56:15;;;;;;;2.67;2.47;;;19.90;33.70;;;;;;6218580;23;20470;-79
2021/03/10 04:58:41;;;;;;;2.38;2.17;;;19.90;33.10;;;;;;6245386;23;20012;-79
2021/03/10 05:01:07;;;;;;;2.28;2.10;;;19.90;33.10;;;;;;6218018;23;20519;-79
2021/03/10 05:03:32;;;;;;;2.47;2.22;;;19.90;33.10;;;;;;6245175;23;20008;-79
2021/03/10 05:05:58;;;;;;;2.40;2.20;;;19.90;33.10;;;;;;6218978;23;20030;-80
2021/03/10 05:08:24;;;;;;;2.60;2.17;;;19.90;33.10;;;;;;6218428;23;20042;-79
2021/03/10 05:10:49;;;;;;;2.30;2.10;;;19.90;33.20;;;;;;6219521;23;20016;-79
2021/03/10 05:13:15;;;;;;;2.22;2.03;;;19.90;33.60;;;;;;6195050;23;20051;-79
2021/03/10 05:15:40;;;;;;;2.08;1.85;;;19.90;33.00;;;;;;6193131;23;20031;-79
2021/03/10 05:18:08;;;;;;;2.28;1.90;;;19.90;33.10;;;;;;6193102;23;20020;-79
2021/03/10 05:20:36;;;;;;;2.97;2.40;;;19.90;33.10;;;;;;6193370;23;20016;-79
2021/03/10 05:23:02;;;;;;;2.88;2.30;;;19.90;33.00;;;;;;6218113;23;20346;-79
2021/03/10 05:25:28;;;;;;;2.28;2.05;;;19.90;33.10;;;;;;6218172;23;20008;-79
2021/03/10 05:27:54;;;;;;;2.10;1.90;;;19.90;33.10;;;;;;6217821;22;20028;-79
2021/03/10 05:34:28;;;;;;;2.38;2.00;;;19.90;33.00;;;;;;6216720;23;20016;-80
2021/03/10 05:41:56;;;;;;;2.78;2.25;;;19.90;33.00;;;;;;6244864;23;20026;-79
2021/03/10 05:49:04;;;;;;;;;;;;;;;;;;;;;
2021/03/10 06:24:59;;;;;;;;;;;;;;;;;;;;;
2021/03/10 06:32:24;;;;;;;3.25;2.47;;;19.90;33.40;;;;;;5971208;24;20324;-79
2021/03/10 06:35:02;;;;;;;4.88;2.70;;;19.90;33.40;;;;;;5957877;23;20025;-77
2021/03/10 06:37:32;;;;;;;3.10;2.53;;;20.00;34.10;;;;;;6154278;23;20021;-77
2021/03/10 06:40:13;;;;;;;6.93;2.50;;;19.90;33.70;;;;;;6187422;23;20024;-77
2021/03/10 06:42:40;;;;;;;3.58;2.47;;;19.90;33.40;;;;;;6162967;23;20099;-77
2021/03/10 06:45:07;;;;;;;5.00;2.45;;;19.90;33.50;;;;;;6212477;23;20027;-77
2021/03/10 06:47:40;;;;;;;3.78;1.95;;;19.90;33.50;;;;;;6211903;23;20103;-77
2021/03/10 06:50:07;;;;;;;2.72;2.25;;;19.90;33.20;;;;;;6187161;23;20627;-77
2021/03/10 06:52:33;;;;;;;6.82;2.30;;;20.00;33.20;;;;;;6213106;23;20016;-77
2021/03/10 06:55:06;;;;;;;3.95;2.50;;;20.00;33.10;;;;;;6187294;23;20016;-77
2021/03/10 06:57:44;;;;;;;4.68;2.85;;;20.10;33.00;;;;;;6187263;23;20016;-78
2021/03/10 07:00:23;;;;;;;3.78;2.85;;;20.10;32.90;;;;;;6187796;23;20027;-78
2021/03/10 07:02:49;;;;;;;4.20;2.88;;;20.10;32.80;;;;;;6187708;23;20027;-78
2021/03/10 07:05:17;;;;;;;3.47;2.50;;;20.10;33.30;;;;;;6171527;23;20020;-78
2021/03/10 07:07:49;;;;;;;4.28;2.63;;;20.10;32.60;;;;;;6218686;23;20012;-78
2021/03/10 07:10:15;;;;;;;3.80;2.70;;;20.10;32.60;;;;;;6192469;23;20024;-78
2021/03/10 07:12:49;;;;;;;3.20;2.60;;;20.10;32.60;;;;;;6218528;23;20338;-77
2021/03/10 07:15:18;;;;;;;3.03;2.40;;;20.10;32.60;;;;;;6218714;23;20016;-78
2021/03/10 07:17:49;;;;;;;3.45;2.50;;;20.10;32.60;;;;;;6193231;23;20023;-78
2021/03/10 07:20:16;;;;;;;4.90;2.95;;;20.10;32.50;;;;;;6218928;23;20016;-77
2021/03/10 07:23:09;;;;;;;5.97;2.92;;;20.10;32.40;;;;;;6194048;23;20330;-77
2021/03/10 07:25:44;;;;;;;5.45;3.00;;;20.10;32.50;;;;;;6193343;23;20420;-77
2021/03/10 07:28:17;;;;;;;4.05;2.78;;;20.10;32.50;;;;;;6245285;23;20091;-77
2021/03/10 07:30:52;;;;;;;4.38;2.78;;;20.10;32.60;;;;;;6220947;23;20012;-77
2021/03/10 07:33:22;;;;;;;4.43;2.88;;;20.10;32.40;;;;;;6245574;23;20024;-77
2021/03/10 07:36:05;;;;;;;3.50;2.40;;;20.10;32.40;;;;;;6218723;23;20016;-77
2021/03/10 07:38:36;;;;;;;4.78;2.50;;;20.10;32.30;;;;;;6190483;23;20012;-77
2021/03/10 07:41:04;;;;;;;4.55;2.80;;;20.10;32.50;;;;;;6190649;23;20342;-77
2021/03/10 07:43:47;;;;;;;5.55;2.72;;;20.10;32.40;;;;;;6194092;23;20087;-77
2021/03/10 07:46:37;;;;;;;4.18;2.97;;;20.10;32.60;;;;;;6218567;23;20070;-77
2021/03/10 07:49:15;;;;;;;5.78;3.00;;;20.00;32.60;;;;;;6193490;23;20016;-77
2021/03/10 07:51:43;;;;;;;2.92;2.28;;;20.00;32.50;;;;;;6218771;23;20012;-77
2021/03/10 07:54:23;;;;;;;4.20;2.60;;;20.00;32.60;;;;;;6218475;23;20047;-77
2021/03/10 07:57:13;;;;;;;4.10;2.80;;;20.00;32.50;;;;;;6218471;23;20028;-77
2021/03/10 08:00:12;;;;;;;4.53;2.72;;;20.00;32.50;;;;;;6194962;23;20012;-77
2021/03/10 08:02:48;;;;;;;6.05;2.90;;;20.00;32.50;;;;;;6218009;23;20039;-78
2021/03/10 08:05:43;;;;;;;3.97;2.42;;;20.00;32.50;;;;;;6245009;22;20016;-79
2021/03/10 08:08:15;;;;;;;4.70;3.15;;;20.00;32.80;;;;;;6215317;23;20099;-78
2021/03/10 08:11:19;;;;;;;4.90;2.30;;;20.10;32.60;;;;;;6224095;23;20093;-78
2021/03/10 08:13:47;;;;;;;4.13;2.50;;;20.10;32.70;;;;;;6245521;23;20338;-78
2021/03/10 08:16:19;;;;;;;4.38;2.90;;;20.00;32.70;;;;;;6190140;23;20016;-78
2021/03/10 08:18:46;;;;;;;4.00;2.60;;;20.00;32.70;;;;;;6218573;23;20019;-78
2021/03/10 08:21:19;;;;;;;7.85;3.13;;;20.00;32.70;;;;;;6194017;23;20308;-78
2021/03/10 08:23:48;;;;;;;5.65;3.22;;;20.00;32.80;;;;;;6245425;23;20465;-78
2021/03/10 08:27:04;;;;;;;6.10;2.40;;;20.10;32.70;;;;;;6223974;23;20043;-78
2021/03/10 08:29:52;;;;;;;6.90;2.20;;;20.10;32.70;;;;;;6215670;23;20331;-78
2021/03/10 08:32:38;;;;;;;4.47;2.58;;;20.10;32.80;;;;;;6244650;22;20338;-77
2021/03/10 08:35:23;;;;;;;4.60;2.80;;;20.10;32.80;;;;;;6218444;23;20035;-78
2021/03/10 08:37:55;;;;;;;6.65;2.47;;;20.20;32.90;;;;;;6217535;23;20020;-78
2021/03/10 08:40:29;;;;;;;4.80;2.42;;;20.20;32.80;;;;;;6245118;22;20023;-78
2021/03/10 08:43:34;;;;;;;6.10;2.70;;;20.10;32.80;;;;;;6244565;23;20012;-78
2021/03/10 08:46:35;;;;;;;6.50;2.60;;;20.10;32.80;;;;;;6192686;23;20016;-78
2021/03/10 08:49:28;;;;;;;5.18;2.60;;;20.10;32.70;;;;;;6190392;23;20170;-80
2021/03/10 08:52:55;;;;;;;4.03;2.35;;;20.10;32.90;;;;;;6243392;23;20012;-83
2021/03/10 09:00:35;;;;;;;;;;;;;;;;;;;;;
2021/03/10 09:20:23;;;;;;;;;;;;;;;;;;;;;
2021/03/10 09:23:47;;;;;;;;;;;;;;;;;;;;;
2021/03/10 09:31:34;;;;;;;4.13;2.60;;;20.30;32.40;;;;;;5962343;23;20035;-80
2021/03/10 09:34:45;;;;;;;6.53;2.53;;;20.30;32.30;;;;;;5984585;23;20196;-79
2021/03/10 09:38:45;;;;;;;10.27;2.83;;;20.30;32.30;;;;;;6025283;23;20030;-79
2021/03/10 12:07:53;;;;;;;3.65;2.25;;;20.60;32.90;;;;;;5924659;24;20025;-82
2021/03/10 12:11:48;;;;;;;6.80;2.88;;;20.60;32.80;;;;;;5900573;24;20032;-81
2021/03/10 12:29:39;;;;;;;5.13;2.60;;;20.60;32.70;;;;;;5907775;24;20032;-82
2021/03/10 12:32:16;;;;;;;5.90;2.15;;;20.80;32.80;;;;;;5929079;24;20044;-82
2021/03/10 12:34:57;;;;;;;6.93;3.05;;;21.00;32.50;;;;;;6037156;23;20019;-82
2021/03/10 12:37:45;;;;;;;5.57;2.38;;;21.60;31.70;;;;;;6160749;23;20074;-84
2021/03/10 12:40:22;;;;;;;8.90;2.70;;;22.40;31.20;;;;;;6192265;23;20016;-83
2021/03/10 12:42:53;;;;;;;4.38;2.63;;;23.00;30.10;;;;;;6193153;23;20043;-82
2021/03/10 12:45:25;;;;;;;6.82;2.80;;;23.30;29.70;;;;;;6191993;23;20438;-83
